createdAt,value
2018-08-23T00:00:47.069Z,1.77
2018-08-23T00:03:21.670Z,3.23
2018-08-23T00:05:54.733Z,3.27
2018-08-23T00:08:25.028Z,1.87
2018-08-23T00:13:21.440Z,3.77
2018-08-23T00:18:40.993Z,1.57
2018-08-23T00:21:15.379Z,3.40
2018-08-23T00:23:51.114Z,2.70
2018-08-23T00:26:20.527Z,2.30
2018-08-23T00:31:41.657Z,1.63
2018-08-23T00:36:48.384Z,1.57
2018-08-23T00:39:18.601Z,7.73
2018-08-23T00:44:29.590Z,2.17
2018-08-23T00:46:59.571Z,1.90
2018-08-23T00:49:33.144Z,2.23
2018-08-23T00:52:02.623Z,2.40
2018-08-23T00:54:32.241Z,2.97
2018-08-23T00:59:56.561Z,2.97
2018-08-23T01:02:25.980Z,4.40
2018-08-23T01:04:55.702Z,2.70
2018-08-23T01:07:28.753Z,1.27
2018-08-23T01:09:58.735Z,5.07
2018-08-23T01:12:29.155Z,2.50
2018-08-23T01:15:00.212Z,2.70
2018-08-23T01:17:29.341Z,2.00
2018-08-23T01:19:59.723Z,4.40
2018-08-23T01:25:09.192Z,3.37
2018-08-23T01:27:38.908Z,1.40
2018-08-23T01:30:08.689Z,1.67
2018-08-23T01:32:38.109Z,5.13
2018-08-23T01:35:09.621Z,4.23
2018-08-23T01:37:40.996Z,5.90
2018-08-23T01:40:11.571Z,1.73
2018-08-23T01:42:42.630Z,1.60
2018-08-23T01:45:11.801Z,2.63
2018-08-23T01:47:46.600Z,3.10
2018-08-23T01:50:15.853Z,1.77
2018-08-23T01:52:46.109Z,5.50
2018-08-23T01:55:16.940Z,2.97
2018-08-23T01:57:46.610Z,1.90
2018-08-23T02:00:21.172Z,4.00
2018-08-23T02:05:24.505Z,1.70
2018-08-23T02:07:54.002Z,3.00
2018-08-23T02:10:23.742Z,4.50
2018-08-23T02:12:56.983Z,1.60
2018-08-23T02:15:26.738Z,2.33
2018-08-23T02:17:57.811Z,2.27
2018-08-23T02:20:28.198Z,3.40
2018-08-23T02:22:57.985Z,7.97
2018-08-23T02:25:27.712Z,2.73
2018-08-23T02:30:42.609Z,4.77
2018-08-23T02:33:12.320Z,3.27
2018-08-23T02:35:48.986Z,1.90
2018-08-23T02:38:21.081Z,2.50
2018-08-23T02:40:50.893Z,4.50
2018-08-23T02:45:50.419Z,2.27
2018-08-23T02:48:20.856Z,3.57
2018-08-23T02:50:51.905Z,2.23
2018-08-23T02:53:32.354Z,3.37
2018-08-23T02:56:05.846Z,2.90
2018-08-23T02:58:43.207Z,2.97
2018-08-23T03:01:12.982Z,3.53
2018-08-23T03:03:52.660Z,5.33
2018-08-23T03:06:29.796Z,1.90
2018-08-23T03:08:58.906Z,4.03
2018-08-23T03:11:28.182Z,2.77
2018-08-23T03:13:57.982Z,2.90
2018-08-23T03:16:32.373Z,3.23
2018-08-23T03:19:01.818Z,2.50
2018-08-23T03:21:31.365Z,2.20
2018-08-23T03:24:01.295Z,2.23
2018-08-23T03:26:30.756Z,2.70
2018-08-23T03:28:59.872Z,6.80
2018-08-23T03:31:29.178Z,2.67
2018-08-23T03:33:58.435Z,7.53
2018-08-23T03:36:28.846Z,3.13
2018-08-23T03:38:58.594Z,3.77
2018-08-23T03:41:28.383Z,2.67
2018-08-23T03:43:57.479Z,5.60
2018-08-23T03:46:27.360Z,2.77
2018-08-23T03:49:03.870Z,3.57
2018-08-23T03:51:37.455Z,3.20
2018-08-23T03:54:06.637Z,2.33
2018-08-23T03:56:36.535Z,4.50
2018-08-23T03:59:05.963Z,2.70
2018-08-23T04:01:35.395Z,2.30
2018-08-23T04:04:04.819Z,2.70
2018-08-23T04:06:34.065Z,2.70
2018-08-23T04:09:03.381Z,6.73
2018-08-23T04:11:33.198Z,3.17
2018-08-23T04:14:02.905Z,8.83
2018-08-23T04:16:32.686Z,3.07
2018-08-23T04:19:02.120Z,3.13
2018-08-23T04:21:32.563Z,2.33
2018-08-23T04:24:01.643Z,9.70
2018-08-23T04:26:30.509Z,2.73
2018-08-23T04:28:59.880Z,2.93
2018-08-23T04:31:29.149Z,6.83
2018-08-23T04:33:58.571Z,7.43
2018-08-23T04:36:31.105Z,3.20
2018-08-23T04:39:05.649Z,2.53
2018-08-23T04:41:35.065Z,4.37
2018-08-23T04:44:18.634Z,7.67
2018-08-23T04:46:49.337Z,2.90
2018-08-23T04:49:18.123Z,4.90
2018-08-23T04:51:49.228Z,5.07
2018-08-23T04:54:19.559Z,6.70
2018-08-23T04:56:50.012Z,4.60
2018-08-23T04:59:20.352Z,4.20
2018-08-23T05:01:50.771Z,3.30
2018-08-23T05:04:20.335Z,11.53
2018-08-23T05:06:50.586Z,4.97
2018-08-23T05:09:20.471Z,3.10
2018-08-23T05:11:51.685Z,2.07
2018-08-23T05:14:20.960Z,5.37
2018-08-23T05:16:50.945Z,5.50
2018-08-23T05:19:21.639Z,5.73
2018-08-23T05:21:51.422Z,4.60
2018-08-23T05:24:23.698Z,7.37
2018-08-23T05:26:53.457Z,4.80
2018-08-23T05:29:22.931Z,3.30
2018-08-23T05:34:18.310Z,2.30
2018-08-23T05:36:48.162Z,4.10
2018-08-23T05:39:17.258Z,8.43
2018-08-23T05:44:37.609Z,2.40
2018-08-23T05:47:06.741Z,8.00
2018-08-23T05:49:36.375Z,2.73
2018-08-23T05:52:05.810Z,4.70
2018-08-23T05:54:36.225Z,2.47
2018-08-23T05:57:06.290Z,4.07
2018-08-23T05:59:36.045Z,3.20
2018-08-23T06:02:05.142Z,4.83
2018-08-23T06:04:40.034Z,3.50
2018-08-23T06:07:09.941Z,7.43
2018-08-23T06:09:41.459Z,4.30
2018-08-23T06:14:34.369Z,3.17
2018-08-23T06:17:04.054Z,4.57
2018-08-23T06:19:33.487Z,6.00
2018-08-23T06:22:01.999Z,4.10
2018-08-23T06:24:31.569Z,3.67
2018-08-23T06:27:01.795Z,7.37
2018-08-23T06:29:33.158Z,7.23
2018-08-23T06:32:10.295Z,4.40
2018-08-23T06:34:57.006Z,7.83
2018-08-23T06:37:26.858Z,8.23
2018-08-23T06:39:56.183Z,6.30
2018-08-23T06:42:41.952Z,7.23
2018-08-23T06:45:10.878Z,8.47
2018-08-23T06:47:43.069Z,10.53
2018-08-23T06:50:12.218Z,5.10
2018-08-23T06:52:47.722Z,5.73
2018-08-23T06:55:22.072Z,9.27
2018-08-23T06:57:55.989Z,5.57
2018-08-23T07:00:25.960Z,6.93
2018-08-23T07:02:55.703Z,4.13
2018-08-23T07:05:25.552Z,5.47
2018-08-23T07:07:54.915Z,3.87
2018-08-23T07:10:24.367Z,3.30
2018-08-23T07:12:56.646Z,5.43
2018-08-23T07:15:25.864Z,11.93
2018-08-23T07:17:54.377Z,3.80
2018-08-23T07:23:26.185Z,4.63
2018-08-23T07:25:54.998Z,6.67
2018-08-23T07:28:23.482Z,10.60
2018-08-23T07:30:53.928Z,5.53
2018-08-23T07:33:22.454Z,6.10
2018-08-23T07:36:01.519Z,5.43
2018-08-23T07:38:30.058Z,4.13
2018-08-23T07:40:58.362Z,9.53
2018-08-23T07:43:26.829Z,5.70
2018-08-23T07:45:55.301Z,7.40
2018-08-23T07:48:23.806Z,9.13
2018-08-23T07:50:52.309Z,3.90
2018-08-23T07:53:20.997Z,13.20
2018-08-23T07:55:49.917Z,3.57
2018-08-23T08:01:10.270Z,4.77
2018-08-23T08:03:38.868Z,10.10
2018-08-23T08:06:07.672Z,6.47
2018-08-23T08:08:36.668Z,3.53
2018-08-23T08:11:05.071Z,5.30
2018-08-23T08:13:33.557Z,7.17
2018-08-23T08:16:14.209Z,4.90
2018-08-23T08:18:42.714Z,8.50
2018-08-23T08:21:16.151Z,6.03
2018-08-23T08:23:46.076Z,3.90
2018-08-23T08:26:14.535Z,4.13
2018-08-23T08:28:43.040Z,3.77
2018-08-23T08:31:11.551Z,11.47
2018-08-23T08:33:40.651Z,6.40
2018-08-23T08:36:09.158Z,4.33
2018-08-23T08:38:37.751Z,4.73
2018-08-23T08:43:43.242Z,6.10
2018-08-23T08:46:12.147Z,3.37
2018-08-23T08:48:40.854Z,4.27
2018-08-23T08:51:26.952Z,10.10
2018-08-23T08:53:56.465Z,6.23
2018-08-23T08:56:28.619Z,3.33
2018-08-23T09:01:33.319Z,2.30
2018-08-23T09:04:02.235Z,6.30
2018-08-23T09:06:36.046Z,3.53
2018-08-23T09:09:12.314Z,6.00
2018-08-23T09:11:41.629Z,4.27
2018-08-23T09:14:10.229Z,3.03
2018-08-23T09:16:39.022Z,3.13
2018-08-23T09:19:07.314Z,2.80
2018-08-23T09:21:35.790Z,6.80
2018-08-23T09:24:21.291Z,2.10
2018-08-23T09:26:49.805Z,6.00
2018-08-23T09:29:30.362Z,2.20
2018-08-23T09:32:13.341Z,6.33
2018-08-23T09:34:42.703Z,4.07
2018-08-23T09:37:11.199Z,10.43
2018-08-23T09:39:40.301Z,4.13
2018-08-23T09:42:09.095Z,7.50
2018-08-23T09:44:51.314Z,8.13
2018-08-23T09:47:19.806Z,10.63
2018-08-23T09:49:50.421Z,3.97
2018-08-23T09:52:22.019Z,3.00
2018-08-23T09:54:50.747Z,3.90
2018-08-23T09:57:19.388Z,3.03
2018-08-23T09:59:52.619Z,2.33
2018-08-23T10:02:26.989Z,2.40
2018-08-23T10:06:01.390Z,2.27
2018-08-23T10:08:35.314Z,7.23
2018-08-23T10:11:09.230Z,4.73
2018-08-23T10:13:43.157Z,4.30
2018-08-23T10:16:17.081Z,3.37
2018-08-23T10:18:49.401Z,1.93
2018-08-23T10:21:18.198Z,6.90
2018-08-23T10:23:46.858Z,2.37
2018-08-23T10:26:29.433Z,2.50
2018-08-23T10:28:58.030Z,4.00
2018-08-23T10:31:26.927Z,4.57
2018-08-23T10:33:55.317Z,2.43
2018-08-23T10:36:23.793Z,3.30
2018-08-23T10:38:52.271Z,4.43
2018-08-23T10:41:20.773Z,3.70
2018-08-23T10:43:49.550Z,2.50
2018-08-23T10:49:11.160Z,5.97
2018-08-23T10:51:39.954Z,5.27
2018-08-23T10:54:08.439Z,4.03
2018-08-23T10:56:36.903Z,3.83
2018-08-23T10:59:05.442Z,3.20
2018-08-23T11:01:34.219Z,5.67
2018-08-23T11:04:05.586Z,2.77
2018-08-23T11:06:35.306Z,5.63
2018-08-23T11:09:09.550Z,4.40
2018-08-23T11:11:38.464Z,4.87
2018-08-23T11:14:13.023Z,6.63
2018-08-23T11:16:47.312Z,5.53
2018-08-23T11:19:21.440Z,6.83
2018-08-23T11:21:50.245Z,2.73
2018-08-23T11:24:19.340Z,3.33
2018-08-23T11:26:48.148Z,3.00
2018-08-23T11:29:17.257Z,2.97
2018-08-23T11:31:45.709Z,3.10
2018-08-23T11:34:14.241Z,5.40
2018-08-23T11:36:42.857Z,3.23
2018-08-23T11:42:04.294Z,3.90
2018-08-23T11:44:32.809Z,3.00
2018-08-23T11:47:01.608Z,3.07
2018-08-23T11:49:30.405Z,3.90
2018-08-23T11:51:59.200Z,3.20
2018-08-23T11:54:28.293Z,6.30
2018-08-23T11:56:56.808Z,6.17
2018-08-23T11:59:25.530Z,5.67
2018-08-23T12:01:54.121Z,3.20
2018-08-23T12:04:22.515Z,4.07
2018-08-23T12:06:55.161Z,4.63
2018-08-23T12:09:28.003Z,6.63
2018-08-23T12:11:57.591Z,4.50
2018-08-23T12:14:26.701Z,3.33
2018-08-23T12:16:55.217Z,6.00
2018-08-23T12:19:23.714Z,5.10
2018-08-23T12:21:52.304Z,3.23
2018-08-23T12:24:20.593Z,3.27
2018-08-23T12:26:49.085Z,4.03
2018-08-23T12:29:17.555Z,3.30
2018-08-23T12:34:42.746Z,6.33
2018-08-23T12:37:17.245Z,2.67
2018-08-23T12:39:51.159Z,2.60
2018-08-23T12:42:25.249Z,6.73
2018-08-23T12:44:54.210Z,2.97
2018-08-23T12:47:22.693Z,3.33
2018-08-23T12:49:51.233Z,7.13
2018-08-23T12:52:20.287Z,4.73
2018-08-23T12:54:49.378Z,4.57
2018-08-23T12:57:18.202Z,4.43
2018-08-23T12:59:46.985Z,2.90
2018-08-23T13:02:15.887Z,2.67
2018-08-23T13:04:44.593Z,3.60
2018-08-23T13:07:13.112Z,15.00
2018-08-23T13:09:41.896Z,2.40
2018-08-23T13:12:10.397Z,5.90
2018-08-23T13:14:38.915Z,3.60
2018-08-23T13:17:07.870Z,3.50
2018-08-23T13:19:36.521Z,2.83
2018-08-23T13:22:05.323Z,4.90
2018-08-23T13:24:37.881Z,5.03
2018-08-23T13:27:06.363Z,4.50
2018-08-23T13:29:35.178Z,5.70
2018-08-23T13:34:37.603Z,2.93
2018-08-23T13:37:06.497Z,3.23
2018-08-23T13:39:35.205Z,3.23
2018-08-23T13:42:04.005Z,5.37
2018-08-23T13:44:32.525Z,4.17
2018-08-23T13:47:01.107Z,4.00
2018-08-23T13:49:29.714Z,3.30
2018-08-23T13:51:58.201Z,3.50
2018-08-23T13:54:26.673Z,3.23
2018-08-23T13:56:55.169Z,8.80
2018-08-23T13:59:23.953Z,7.30
2018-08-23T14:01:52.455Z,3.33
2018-08-23T14:04:20.968Z,6.00
2018-08-23T14:06:49.484Z,3.10
2018-08-23T14:09:18.416Z,5.13
2018-08-23T14:11:47.372Z,3.40
2018-08-23T14:14:16.169Z,3.17
2018-08-23T14:16:44.964Z,3.47
2018-08-23T14:19:13.824Z,3.20
2018-08-23T14:21:42.269Z,3.07
2018-08-23T14:24:10.872Z,3.27
2018-08-23T14:26:39.473Z,8.83
2018-08-23T14:29:08.161Z,7.33
2018-08-23T14:31:37.089Z,7.33
2018-08-23T14:34:06.084Z,3.17
2018-08-23T14:39:01.181Z,4.00
2018-08-23T14:41:35.417Z,4.23
2018-08-23T14:44:05.249Z,5.30
2018-08-23T14:46:39.505Z,5.73
2018-08-23T14:49:08.838Z,3.93
2018-08-23T14:51:37.943Z,6.83
2018-08-23T14:54:12.503Z,3.10
2018-08-23T14:56:48.074Z,3.80
2018-08-23T14:59:18.446Z,4.90
2018-08-23T15:01:48.556Z,3.77
2018-08-23T15:04:18.446Z,3.90
2018-08-23T15:09:33.512Z,6.10
2018-08-23T15:12:03.067Z,3.47
2018-08-23T15:14:32.143Z,3.27
2018-08-23T15:17:01.827Z,4.47
2018-08-23T15:19:31.253Z,3.90
2018-08-23T15:24:24.044Z,3.60
2018-08-23T15:26:53.798Z,3.23
2018-08-23T15:29:23.230Z,6.33
2018-08-23T15:31:52.672Z,3.07
2018-08-23T15:34:22.858Z,3.00
2018-08-23T15:36:53.167Z,3.53
2018-08-23T15:39:22.617Z,2.93
2018-08-23T15:41:54.710Z,2.77
2018-08-23T15:44:24.695Z,5.67
2018-08-23T15:46:54.398Z,2.60
2018-08-23T15:49:23.861Z,3.90
2018-08-23T15:51:53.654Z,4.60
2018-08-23T15:54:23.432Z,3.80
2018-08-23T15:56:53.218Z,3.43
2018-08-23T15:59:22.621Z,2.57
2018-08-23T16:01:51.662Z,3.10
2018-08-23T16:04:20.827Z,4.90
2018-08-23T16:06:49.603Z,3.20
2018-08-23T16:09:18.177Z,3.97
2018-08-23T16:11:46.952Z,3.27
2018-08-23T16:14:16.928Z,7.73
2018-08-23T16:16:51.053Z,3.23
2018-08-23T16:19:25.268Z,2.87
2018-08-23T16:21:56.329Z,4.67
2018-08-23T16:24:26.024Z,4.00
2018-08-23T16:26:59.946Z,3.00
2018-08-23T16:29:28.758Z,5.50
2018-08-23T16:31:57.939Z,5.07
2018-08-23T16:34:26.974Z,3.07
2018-08-23T16:36:55.777Z,3.87
2018-08-23T16:39:24.141Z,7.30
2018-08-23T16:41:52.137Z,5.30
2018-08-23T16:44:20.177Z,6.10
2018-08-23T16:46:48.405Z,5.63
2018-08-23T16:49:16.433Z,4.40
2018-08-23T16:51:44.455Z,4.67
2018-08-23T16:54:12.557Z,3.70
2018-08-23T16:56:40.842Z,4.70
2018-08-23T16:59:08.870Z,3.00
2018-08-23T17:01:36.886Z,3.77
2018-08-23T17:04:05.020Z,5.30
2018-08-23T17:06:33.023Z,4.37
2018-08-23T17:09:01.035Z,3.53
2018-08-23T17:11:29.198Z,4.37
2018-08-23T17:13:57.230Z,4.57
2018-08-23T17:16:30.846Z,5.90
2018-08-23T17:18:59.004Z,5.80
2018-08-23T17:21:27.434Z,7.03
2018-08-23T17:23:55.453Z,4.10
2018-08-23T17:26:23.553Z,3.47
2018-08-23T17:28:51.673Z,4.13
2018-08-23T17:31:19.677Z,7.50
2018-08-23T17:33:47.683Z,5.00
2018-08-23T17:36:15.746Z,5.47
2018-08-23T17:38:44.010Z,7.83
2018-08-23T17:41:12.026Z,6.67
2018-08-23T17:43:40.085Z,8.37
2018-08-23T17:46:08.123Z,4.93
2018-08-23T17:48:36.162Z,4.50
2018-08-23T17:51:04.161Z,3.30
2018-08-23T17:53:32.205Z,5.33
2018-08-23T17:56:00.596Z,3.60
2018-08-23T17:58:28.599Z,4.50
2018-08-23T18:00:56.624Z,4.57
2018-08-23T18:03:24.634Z,8.57
2018-08-23T18:05:52.739Z,34.83
2018-08-23T18:08:27.503Z,39.27
2018-08-23T18:10:55.559Z,35.33
2018-08-23T18:13:23.598Z,29.20
2018-08-23T18:15:57.069Z,21.40
2018-08-23T18:18:25.132Z,23.10
2018-08-23T18:20:53.236Z,20.03
2018-08-23T18:23:21.233Z,23.50
2018-08-23T18:25:49.593Z,29.10
2018-08-23T18:28:20.796Z,27.03
2018-08-23T18:30:49.236Z,23.17
2018-08-23T18:33:17.364Z,20.87
2018-08-23T18:35:45.410Z,18.00
2018-08-23T18:38:13.633Z,16.47
2018-08-23T18:40:41.782Z,13.17
2018-08-23T18:43:10.002Z,24.50
2018-08-23T18:45:38.049Z,22.83
2018-08-23T18:48:06.238Z,15.13
2018-08-23T18:50:34.530Z,15.60
2018-08-23T18:53:02.517Z,19.57
2018-08-23T18:55:30.593Z,11.63
2018-08-23T18:57:58.650Z,19.70
2018-08-23T19:00:26.968Z,17.90
2018-08-23T19:02:54.965Z,16.20
2018-08-23T19:05:23.038Z,18.63
2018-08-23T19:07:51.082Z,18.53
2018-08-23T19:10:19.259Z,12.77
2018-08-23T19:12:47.275Z,7.83
2018-08-23T19:15:17.867Z,10.97
2018-08-23T19:17:46.203Z,16.87
2018-08-23T19:20:15.112Z,7.53
2018-08-23T19:22:43.118Z,13.13
2018-08-23T19:25:11.604Z,12.20
2018-08-23T19:27:39.693Z,11.90
2018-08-23T19:30:08.476Z,8.50
2018-08-23T19:32:36.773Z,23.90
2018-08-23T19:35:04.838Z,12.67
2018-08-23T19:37:32.840Z,9.70
2018-08-23T19:40:00.946Z,17.00
2018-08-23T19:42:29.023Z,14.40
2018-08-23T19:44:58.324Z,11.47
2018-08-23T19:47:31.817Z,16.90
2018-08-23T19:50:01.173Z,24.83
2018-08-23T19:52:29.224Z,17.90
2018-08-23T19:54:57.326Z,18.97
2018-08-23T19:57:25.397Z,15.03
2018-08-23T19:59:53.406Z,13.10
2018-08-23T20:02:21.460Z,14.43
2018-08-23T20:04:49.547Z,10.73
2018-08-23T20:07:17.746Z,12.53
2018-08-23T20:09:45.817Z,13.07
2018-08-23T20:12:13.915Z,9.40
2018-08-23T20:14:41.902Z,7.57
2018-08-23T20:17:11.254Z,5.23
2018-08-23T20:19:39.290Z,10.77
2018-08-23T20:22:07.709Z,16.33
2018-08-23T20:24:35.985Z,10.17
2018-08-23T20:27:04.017Z,10.00
2018-08-23T20:29:32.191Z,6.50
2018-08-23T20:32:00.188Z,8.00
2018-08-23T20:34:28.302Z,5.70
2018-08-23T20:36:56.305Z,5.73
2018-08-23T20:39:24.653Z,5.70
2018-08-23T20:41:52.512Z,4.43
2018-08-23T20:44:20.537Z,8.53
2018-08-23T20:46:48.596Z,5.40
2018-08-23T20:49:16.561Z,4.27
2018-08-23T20:51:44.786Z,8.80
2018-08-23T20:54:12.868Z,5.23
2018-08-23T20:56:40.957Z,6.93
2018-08-23T20:59:08.996Z,9.67
2018-08-23T21:01:37.013Z,6.17
2018-08-23T21:04:05.131Z,8.10
2018-08-23T21:06:33.197Z,7.30
2018-08-23T21:09:01.277Z,6.77
2018-08-23T21:11:29.286Z,10.20
2018-08-23T21:13:57.329Z,9.27
2018-08-23T21:16:25.320Z,6.87
2018-08-23T21:18:53.406Z,6.33
2018-08-23T21:21:21.493Z,8.00
2018-08-23T21:23:49.573Z,7.70
2018-08-23T21:26:17.720Z,6.73
2018-08-23T21:28:45.838Z,6.93
2018-08-23T21:31:13.893Z,4.10
2018-08-23T21:33:41.885Z,5.97
2018-08-23T21:36:09.892Z,7.23
2018-08-23T21:38:38.285Z,4.80
2018-08-23T21:41:06.294Z,8.63
2018-08-23T21:43:34.406Z,5.13
2018-08-23T21:46:02.444Z,5.50
2018-08-23T21:48:30.452Z,3.50
2018-08-23T21:50:58.493Z,10.40
2018-08-23T21:53:26.488Z,6.47
2018-08-23T21:55:54.530Z,5.47
2018-08-23T21:58:22.525Z,6.83
2018-08-23T22:00:58.903Z,5.80
2018-08-23T22:03:26.937Z,9.47
2018-08-23T22:05:54.992Z,7.03
2018-08-23T22:08:22.992Z,8.70
2018-08-23T22:10:51.470Z,6.23
2018-08-23T22:13:19.468Z,8.60
2018-08-23T22:15:48.361Z,5.20
2018-08-23T22:18:17.153Z,11.77
2018-08-23T22:20:45.160Z,6.03
2018-08-23T22:23:13.813Z,6.43
2018-08-23T22:25:42.017Z,7.20
2018-08-23T22:28:10.309Z,6.67
2018-08-23T22:30:39.237Z,6.50
2018-08-23T22:33:07.904Z,5.60
2018-08-23T22:35:35.956Z,5.00
2018-08-23T22:38:04.102Z,10.47
2018-08-23T22:40:32.096Z,12.03
2018-08-23T22:43:00.138Z,8.17
2018-08-23T22:45:28.333Z,6.97
2018-08-23T22:47:56.409Z,9.57
2018-08-23T22:50:24.631Z,8.30
2018-08-23T22:52:52.689Z,5.17
2018-08-23T22:55:20.797Z,7.23
2018-08-23T22:57:48.857Z,8.20
2018-08-23T23:00:16.968Z,7.73
2018-08-23T23:02:44.997Z,6.23
2018-08-23T23:05:13.490Z,8.57
2018-08-23T23:07:41.502Z,4.80
2018-08-23T23:10:09.502Z,5.77
2018-08-23T23:12:37.575Z,9.13
2018-08-23T23:15:37.585Z,4.83
2018-08-23T23:18:05.694Z,10.40
2018-08-23T23:20:33.774Z,4.83
2018-08-23T23:23:01.889Z,4.93
2018-08-23T23:25:29.897Z,5.53
2018-08-23T23:27:58.026Z,9.33
2018-08-23T23:30:26.063Z,6.67
2018-08-23T23:32:54.225Z,5.30
2018-08-23T23:35:22.276Z,6.63
2018-08-23T23:37:50.364Z,10.73
2018-08-23T23:40:18.380Z,9.30
2018-08-23T23:42:46.434Z,6.60
2018-08-23T23:45:14.470Z,5.87
2018-08-23T23:47:42.512Z,8.97
2018-08-23T23:50:10.505Z,5.80
2018-08-23T23:52:38.616Z,5.57
2018-08-23T23:55:06.765Z,8.33
2018-08-23T23:57:34.807Z,9.20
